createdAt,value
2023-09-06T00:01:43.837Z,17.15
2023-09-06T00:04:10.616Z,17.15
2023-09-06T00:06:37.297Z,17.09
2023-09-06T00:09:04.769Z,17.02
2023-09-06T00:11:31.754Z,17.10
2023-09-06T00:13:58.415Z,17.13
2023-09-06T00:16:24.996Z,17.13
2023-09-06T00:18:51.714Z,17.12
2023-09-06T00:21:18.690Z,17.14
2023-09-06T00:23:45.187Z,17.10
2023-09-06T00:26:11.679Z,17.06
2023-09-06T00:28:39.999Z,17.03
2023-09-06T00:31:06.879Z,17.03
2023-09-06T00:33:35.953Z,16.99
2023-09-06T00:36:07.728Z,16.95
2023-09-06T00:38:34.329Z,16.92
2023-09-06T00:41:00.871Z,16.85
2023-09-06T00:43:27.419Z,16.81
2023-09-06T00:45:54.851Z,16.87
2023-09-06T00:48:22.960Z,16.95
2023-09-06T00:50:55.570Z,16.87
2023-09-06T00:53:23.514Z,16.92
2023-09-06T00:55:50.418Z,16.92
2023-09-06T00:58:19.181Z,16.95
2023-09-06T01:00:50.391Z,16.84
2023-09-06T01:03:18.014Z,16.89
2023-09-06T01:06:05.821Z,16.85
2023-09-06T01:08:56.863Z,16.76
2023-09-06T01:11:26.544Z,16.71
2023-09-06T01:13:54.042Z,16.67
2023-09-06T01:16:30.384Z,16.62
2023-09-06T01:18:58.150Z,16.63
2023-09-06T01:21:26.503Z,16.64
2023-09-06T01:23:54.533Z,16.61
2023-09-06T01:26:21.525Z,16.59
2023-09-06T01:28:50.632Z,16.58
2023-09-06T01:31:18.093Z,16.63
2023-09-06T01:33:44.888Z,16.68
2023-09-06T01:36:11.582Z,16.66
2023-09-06T01:38:38.165Z,16.61
2023-09-06T01:41:05.341Z,16.55
2023-09-06T01:43:32.732Z,16.51
2023-09-06T01:45:59.528Z,16.45
2023-09-06T01:48:26.516Z,16.33
2023-09-06T01:50:55.100Z,16.32
2023-09-06T01:53:23.761Z,16.29
2023-09-06T01:55:51.367Z,16.32
2023-09-06T01:58:17.795Z,16.31
2023-09-06T02:00:46.490Z,16.27
2023-09-06T02:03:15.648Z,16.21
2023-09-06T02:05:42.911Z,16.19
2023-09-06T02:08:09.536Z,16.16
2023-09-06T02:10:36.127Z,16.18
2023-09-06T02:13:03.111Z,16.18
2023-09-06T02:15:31.674Z,16.11
2023-09-06T02:17:58.608Z,16.07
2023-09-06T02:20:26.875Z,16.06
2023-09-06T02:22:58.487Z,16.11
2023-09-06T02:25:30.371Z,16.10
2023-09-06T02:27:57.846Z,16.04
2023-09-06T02:30:24.496Z,16.09
2023-09-06T02:32:51.541Z,16.00
2023-09-06T02:35:18.099Z,16.02
2023-09-06T02:37:44.734Z,16.06
2023-09-06T02:40:15.304Z,15.98
2023-09-06T02:42:42.325Z,16.03
2023-09-06T02:45:13.227Z,16.04
2023-09-06T02:47:49.463Z,15.90
2023-09-06T02:50:26.460Z,15.98
2023-09-06T02:52:57.722Z,15.90
2023-09-06T02:55:25.219Z,15.87
2023-09-06T02:57:52.757Z,15.82
2023-09-06T03:00:25.910Z,15.74
2023-09-06T03:03:00.481Z,15.79
2023-09-06T03:05:28.464Z,15.74
2023-09-06T03:07:55.444Z,15.78
2023-09-06T03:10:24.319Z,15.76
2023-09-06T03:12:56.270Z,15.70
2023-09-06T03:15:31.156Z,15.70
2023-09-06T03:17:59.961Z,15.61
2023-09-06T03:20:34.136Z,15.64
2023-09-06T03:23:18.480Z,15.62
2023-09-06T03:25:55.349Z,15.59
2023-09-06T03:28:23.335Z,15.47
2023-09-06T03:30:50.487Z,15.54
2023-09-06T03:33:17.167Z,15.52
2023-09-06T03:35:46.979Z,15.57
2023-09-06T03:38:17.192Z,15.60
2023-09-06T03:40:44.802Z,15.53
2023-09-06T03:43:18.620Z,15.47
2023-09-06T03:45:52.554Z,15.38
2023-09-06T03:48:21.752Z,15.33
2023-09-06T03:50:53.203Z,15.28
2023-09-06T03:53:20.080Z,15.31
2023-09-06T03:55:47.943Z,15.29
2023-09-06T03:58:14.790Z,15.24
2023-09-06T04:00:44.539Z,15.28
2023-09-06T04:03:13.736Z,15.25
2023-09-06T04:05:42.159Z,15.28
2023-09-06T04:08:10.036Z,15.21
2023-09-06T04:10:45.543Z,15.22
2023-09-06T04:13:14.255Z,15.23
2023-09-06T04:15:43.765Z,15.27
2023-09-06T04:18:11.959Z,15.23
2023-09-06T04:20:40.448Z,15.23
2023-09-06T04:23:09.761Z,15.16
2023-09-06T04:25:42.984Z,15.25
2023-09-06T04:28:11.101Z,15.21
2023-09-06T04:30:38.830Z,15.23
2023-09-06T04:33:11.471Z,15.22
2023-09-06T04:35:40.371Z,15.21
2023-09-06T04:38:10.891Z,15.19
2023-09-06T04:40:39.061Z,15.20
2023-09-06T04:43:07.212Z,15.20
2023-09-06T04:45:33.998Z,15.17
2023-09-06T04:48:00.854Z,15.14
2023-09-06T04:50:28.474Z,15.16
2023-09-06T04:52:55.277Z,15.27
2023-09-06T04:55:21.886Z,15.28
2023-09-06T04:57:49.008Z,15.32
2023-09-06T05:00:20.008Z,15.43
2023-09-06T05:02:47.941Z,15.51
2023-09-06T05:05:16.458Z,15.57
2023-09-06T05:07:43.310Z,15.64
2023-09-06T05:10:13.387Z,15.71
2023-09-06T05:12:40.324Z,15.80
2023-09-06T05:15:08.138Z,15.86
2023-09-06T05:17:35.773Z,16.00
2023-09-06T05:20:29.120Z,16.13
2023-09-06T05:23:07.400Z,16.23
2023-09-06T05:25:34.835Z,16.32
2023-09-06T05:28:05.844Z,16.49
2023-09-06T05:30:35.861Z,16.55
2023-09-06T05:33:02.511Z,16.54
2023-09-06T05:35:29.174Z,16.73
2023-09-06T05:37:55.923Z,16.95
2023-09-06T05:40:24.534Z,17.03
2023-09-06T05:42:52.167Z,17.16
2023-09-06T05:45:20.668Z,17.28
2023-09-06T05:47:48.091Z,17.37
2023-09-06T05:50:15.233Z,17.53
2023-09-06T05:52:42.003Z,17.59
2023-09-06T05:55:09.424Z,17.76
2023-09-06T05:57:36.177Z,17.84
2023-09-06T06:00:05.214Z,17.97
2023-09-06T06:02:32.975Z,18.12
2023-09-06T06:04:59.687Z,18.29
2023-09-06T06:07:26.320Z,18.43
2023-09-06T06:09:55.452Z,18.53
2023-09-06T06:12:23.909Z,18.62
2023-09-06T06:14:52.994Z,18.71
2023-09-06T06:17:19.781Z,18.84
2023-09-06T06:19:48.620Z,18.93
2023-09-06T06:22:15.212Z,19.02
2023-09-06T06:24:47.095Z,19.11
2023-09-06T06:27:14.629Z,19.18
2023-09-06T06:29:41.410Z,19.28
2023-09-06T06:32:08.649Z,19.36
2023-09-06T06:34:40.192Z,19.47
2023-09-06T06:37:08.270Z,19.54
2023-09-06T06:39:34.808Z,19.69
2023-09-06T06:42:01.371Z,19.76
2023-09-06T06:44:27.860Z,19.79
2023-09-06T06:46:54.421Z,19.87
2023-09-06T06:49:21.074Z,20.00
2023-09-06T06:51:47.652Z,20.09
2023-09-06T06:54:17.122Z,20.20
2023-09-06T06:56:43.749Z,20.26
2023-09-06T06:59:11.204Z,20.33
2023-09-06T07:01:38.012Z,20.46
2023-09-06T07:04:07.704Z,20.51
2023-09-06T07:06:35.315Z,20.63
2023-09-06T07:09:04.906Z,20.73
2023-09-06T07:11:32.639Z,20.82
2023-09-06T07:13:59.237Z,20.94
2023-09-06T07:16:27.614Z,21.00
2023-09-06T07:18:56.051Z,21.11
2023-09-06T07:21:22.553Z,21.23
2023-09-06T07:23:49.136Z,21.31
2023-09-06T07:26:15.778Z,21.43
2023-09-06T07:28:45.102Z,21.52
2023-09-06T07:31:12.775Z,21.62
2023-09-06T07:33:39.908Z,21.76
2023-09-06T07:36:07.238Z,21.83
2023-09-06T07:38:34.234Z,21.94
2023-09-06T07:41:02.606Z,22.06
2023-09-06T07:43:30.232Z,22.12
2023-09-06T07:45:58.010Z,22.27
2023-09-06T07:48:33.008Z,22.39
2023-09-06T07:51:00.572Z,22.51
2023-09-06T07:53:27.795Z,22.67
2023-09-06T07:55:56.453Z,22.80
2023-09-06T07:58:23.933Z,22.87
2023-09-06T08:00:59.150Z,22.97
2023-09-06T08:03:29.218Z,23.08
2023-09-06T08:05:56.899Z,23.22
2023-09-06T08:08:23.684Z,23.38
2023-09-06T08:10:50.336Z,23.48
2023-09-06T08:13:16.868Z,23.71
2023-09-06T08:15:43.503Z,23.83
2023-09-06T08:18:10.175Z,24.04
2023-09-06T08:20:36.922Z,24.20
2023-09-06T08:23:05.261Z,24.37
2023-09-06T08:25:32.284Z,24.51
2023-09-06T08:27:58.754Z,24.71
2023-09-06T08:30:25.363Z,24.87
2023-09-06T08:32:52.554Z,25.08
2023-09-06T08:35:19.209Z,25.24
2023-09-06T08:37:48.722Z,25.38
2023-09-06T08:40:17.118Z,25.59
2023-09-06T08:42:45.429Z,25.75
2023-09-06T08:45:12.455Z,26.03
2023-09-06T08:47:42.758Z,26.26
2023-09-06T08:50:11.092Z,26.45
2023-09-06T08:52:40.879Z,26.65
2023-09-06T08:55:10.957Z,26.71
2023-09-06T08:57:42.873Z,26.99
2023-09-06T09:00:11.245Z,27.22
2023-09-06T09:02:39.072Z,27.44
2023-09-06T09:05:19.050Z,27.61
2023-09-06T09:07:58.008Z,27.77
2023-09-06T09:10:27.631Z,27.99
2023-09-06T09:12:56.885Z,28.22
2023-09-06T09:15:27.198Z,28.43
2023-09-06T09:18:00.581Z,28.57
2023-09-06T09:20:29.254Z,28.78
2023-09-06T09:23:04.802Z,28.98
2023-09-06T09:25:33.810Z,29.15
2023-09-06T09:28:00.880Z,29.37
2023-09-06T09:30:31.970Z,29.54
2023-09-06T09:33:01.192Z,29.44
2023-09-06T09:35:28.172Z,29.67
2023-09-06T09:37:55.078Z,29.88
2023-09-06T09:40:27.530Z,30.07
2023-09-06T09:43:03.310Z,30.34
2023-09-06T09:45:37.393Z,30.50
2023-09-06T09:48:04.315Z,30.65
2023-09-06T09:50:34.398Z,30.62
2023-09-06T09:53:15.244Z,30.71
2023-09-06T09:55:48.242Z,30.86
2023-09-06T09:58:15.985Z,31.10
2023-09-06T10:00:43.518Z,31.31
2023-09-06T10:03:11.191Z,31.48
2023-09-06T10:05:39.391Z,31.62
2023-09-06T10:08:10.513Z,31.76
2023-09-06T10:10:41.602Z,31.87
2023-09-06T10:13:11.039Z,31.95
2023-09-06T10:15:39.252Z,32.07
2023-09-06T10:18:07.950Z,32.15
2023-09-06T10:20:36.841Z,32.10
2023-09-06T10:23:07.141Z,32.23
2023-09-06T10:25:41.047Z,32.41
2023-09-06T10:28:08.793Z,32.57
2023-09-06T10:30:46.713Z,32.71
2023-09-06T10:33:32.506Z,32.88
2023-09-06T10:36:04.650Z,32.93
2023-09-06T10:38:32.063Z,33.04
2023-09-06T10:40:58.571Z,33.09
2023-09-06T10:43:29.872Z,33.12
2023-09-06T10:45:59.639Z,33.13
2023-09-06T10:48:26.783Z,33.07
2023-09-06T10:51:14.120Z,33.20
2023-09-06T10:53:48.575Z,33.34
2023-09-06T10:56:15.114Z,33.45
2023-09-06T10:58:41.650Z,33.58
2023-09-06T11:01:14.113Z,33.66
2023-09-06T11:03:48.198Z,33.76
2023-09-06T11:06:14.830Z,33.90
2023-09-06T11:08:41.936Z,33.96
2023-09-06T11:11:10.937Z,33.84
2023-09-06T11:13:38.836Z,33.96
2023-09-06T11:16:06.812Z,34.06
2023-09-06T11:18:47.226Z,34.05
2023-09-06T11:21:32.871Z,34.26
2023-09-06T11:23:59.430Z,34.34
2023-09-06T11:26:27.418Z,34.46
2023-09-06T11:29:02.350Z,34.48
2023-09-06T11:31:34.387Z,34.52
2023-09-06T11:34:05.817Z,34.45
2023-09-06T11:36:35.218Z,34.48
2023-09-06T11:39:17.023Z,34.50
2023-09-06T11:41:44.873Z,34.55
2023-09-06T11:44:15.489Z,34.53
2023-09-06T11:46:44.804Z,34.23
2023-09-06T11:49:15.831Z,34.13
2023-09-06T11:51:44.946Z,34.26
2023-09-06T11:54:11.652Z,34.39
2023-09-06T11:56:41.447Z,34.28
2023-09-06T11:59:13.740Z,34.32
2023-09-06T12:01:41.547Z,33.91
2023-09-06T12:04:11.503Z,34.14
2023-09-06T12:06:42.711Z,34.27
2023-09-06T12:09:13.486Z,34.00
2023-09-06T12:11:40.877Z,33.21
2023-09-06T12:14:11.502Z,33.14
2023-09-06T12:16:39.153Z,33.09
2023-09-06T12:19:05.953Z,33.15
2023-09-06T12:21:33.002Z,32.86
2023-09-06T12:23:59.705Z,33.00
2023-09-06T12:26:26.353Z,32.96
2023-09-06T12:28:52.968Z,33.24
2023-09-06T12:31:19.533Z,33.39
2023-09-06T12:33:49.122Z,33.64
2023-09-06T12:36:18.395Z,33.63
2023-09-06T12:38:45.958Z,33.76
2023-09-06T12:41:13.632Z,33.89
2023-09-06T12:43:40.167Z,33.97
2023-09-06T12:46:10.013Z,34.22
2023-09-06T12:48:37.192Z,34.23
2023-09-06T12:51:06.200Z,34.25
2023-09-06T12:53:33.600Z,34.34
2023-09-06T12:56:01.305Z,34.33
2023-09-06T12:58:28.877Z,34.23
2023-09-06T13:00:55.939Z,34.26
2023-09-06T13:03:22.697Z,34.31
2023-09-06T13:05:50.264Z,34.32
2023-09-06T13:08:20.138Z,34.34
2023-09-06T13:10:47.337Z,34.38
2023-09-06T13:13:14.191Z,34.32
2023-09-06T13:15:41.053Z,34.23
2023-09-06T13:18:08.567Z,34.22
2023-09-06T13:20:35.221Z,34.13
2023-09-06T13:23:02.260Z,34.14
2023-09-06T13:25:28.794Z,34.15
2023-09-06T13:27:55.389Z,33.99
2023-09-06T13:30:22.127Z,34.01
2023-09-06T13:32:48.786Z,34.04
2023-09-06T13:35:15.399Z,34.06
2023-09-06T13:37:42.089Z,33.99
2023-09-06T13:40:09.434Z,33.98
2023-09-06T13:42:36.465Z,33.84
2023-09-06T13:45:03.489Z,33.54
2023-09-06T13:47:30.086Z,33.38
2023-09-06T13:49:58.137Z,33.35
2023-09-06T13:52:24.682Z,33.30
2023-09-06T13:54:51.248Z,33.30
2023-09-06T13:57:17.799Z,33.29
2023-09-06T13:59:44.338Z,33.31
2023-09-06T14:02:11.077Z,33.30
2023-09-06T14:04:38.039Z,33.25
2023-09-06T14:07:04.890Z,33.22
2023-09-06T14:09:31.527Z,33.14
2023-09-06T14:11:58.054Z,33.12
2023-09-06T14:14:24.920Z,33.05
2023-09-06T14:16:52.164Z,32.98
2023-09-06T14:19:18.788Z,32.97
2023-09-06T14:21:47.260Z,32.87
2023-09-06T14:24:16.921Z,32.81
2023-09-06T14:26:44.464Z,32.83
2023-09-06T14:29:13.448Z,32.80
2023-09-06T14:31:40.712Z,32.76
2023-09-06T14:34:07.273Z,32.68
2023-09-06T14:36:34.063Z,32.61
2023-09-06T14:39:02.259Z,32.52
2023-09-06T14:41:28.830Z,32.48
2023-09-06T14:43:56.673Z,32.30
2023-09-06T14:46:23.640Z,32.27
2023-09-06T14:48:50.524Z,32.22
2023-09-06T14:51:17.202Z,32.15
2023-09-06T14:53:43.802Z,32.17
2023-09-06T14:56:10.759Z,32.09
2023-09-06T14:58:37.404Z,32.07
2023-09-06T15:01:05.178Z,32.02
2023-09-06T15:03:34.927Z,31.98
2023-09-06T15:06:01.599Z,31.92
2023-09-06T15:08:28.773Z,31.94
2023-09-06T15:10:55.473Z,31.87
2023-09-06T15:13:22.025Z,31.85
2023-09-06T15:15:49.281Z,31.78
2023-09-06T15:18:16.053Z,31.76
2023-09-06T15:20:42.800Z,31.74
2023-09-06T15:23:09.309Z,31.70
2023-09-06T15:25:35.936Z,31.68
2023-09-06T15:28:02.592Z,31.56
2023-09-06T15:30:29.294Z,31.53
2023-09-06T15:32:56.107Z,31.55
2023-09-06T15:35:28.109Z,31.53
2023-09-06T15:38:04.437Z,31.51
2023-09-06T15:40:32.970Z,31.47
2023-09-06T15:42:59.792Z,31.43
2023-09-06T15:45:26.718Z,31.38
2023-09-06T15:47:53.629Z,31.29
2023-09-06T15:50:21.197Z,31.26
2023-09-06T15:52:48.598Z,31.24
2023-09-06T15:55:16.147Z,31.20
2023-09-06T15:57:44.896Z,31.15
2023-09-06T16:00:28.817Z,31.03
2023-09-06T16:02:59.185Z,30.93
2023-09-06T16:05:26.085Z,30.94
2023-09-06T16:07:52.607Z,30.89
2023-09-06T16:10:19.302Z,30.82
2023-09-06T16:12:49.181Z,30.70
2023-09-06T16:15:17.044Z,30.58
2023-09-06T16:17:46.002Z,30.51
2023-09-06T16:20:13.061Z,30.39
2023-09-06T16:22:39.629Z,30.23
2023-09-06T16:25:08.945Z,30.06
2023-09-06T16:27:36.057Z,29.91
2023-09-06T16:30:05.653Z,29.74
2023-09-06T16:32:33.203Z,29.57
2023-09-06T16:35:00.036Z,29.39
2023-09-06T16:37:26.738Z,29.20
2023-09-06T16:39:53.289Z,29.10
2023-09-06T16:42:20.678Z,28.95
2023-09-06T16:44:47.221Z,28.79
2023-09-06T16:47:13.818Z,28.62
2023-09-06T16:49:43.691Z,28.46
2023-09-06T16:52:10.565Z,28.31
2023-09-06T16:54:37.365Z,28.10
2023-09-06T16:57:05.251Z,27.87
2023-09-06T16:59:32.725Z,27.67
2023-09-06T17:01:59.580Z,27.44
2023-09-06T17:04:26.556Z,27.22
2023-09-06T17:06:53.108Z,27.02
2023-09-06T17:09:19.660Z,26.84
2023-09-06T17:11:46.188Z,26.69
2023-09-06T17:14:12.813Z,26.54
2023-09-06T17:16:39.845Z,26.40
2023-09-06T17:19:11.134Z,26.29
2023-09-06T17:21:41.293Z,26.07
2023-09-06T17:24:09.836Z,25.87
2023-09-06T17:26:37.940Z,25.70
2023-09-06T17:29:08.655Z,25.49
2023-09-06T17:31:35.701Z,25.34
2023-09-06T17:34:02.516Z,25.20
2023-09-06T17:36:29.672Z,25.00
2023-09-06T17:38:56.246Z,24.83
2023-09-06T17:41:24.695Z,24.59
2023-09-06T17:43:52.309Z,24.50
2023-09-06T17:46:25.280Z,24.38
2023-09-06T17:48:54.151Z,24.24
2023-09-06T17:51:21.188Z,24.03
2023-09-06T17:53:48.857Z,23.81
2023-09-06T17:56:17.636Z,23.64
2023-09-06T17:58:46.494Z,23.61
2023-09-06T18:01:15.200Z,23.52
2023-09-06T18:03:45.689Z,23.32
2023-09-06T18:06:14.897Z,23.33
2023-09-06T18:08:43.083Z,23.21
2023-09-06T18:11:10.454Z,23.15
2023-09-06T18:13:41.446Z,23.04
2023-09-06T18:16:15.973Z,22.91
2023-09-06T18:18:43.811Z,22.83
2023-09-06T18:21:11.848Z,22.75
2023-09-06T18:23:39.012Z,22.69
2023-09-06T18:26:06.988Z,22.62
2023-09-06T18:28:33.642Z,22.56
2023-09-06T18:31:01.321Z,22.47
2023-09-06T18:33:27.999Z,22.39
2023-09-06T18:35:56.383Z,22.27
2023-09-06T18:38:24.632Z,22.20
2023-09-06T18:40:54.492Z,22.08
2023-09-06T18:43:23.106Z,21.95
2023-09-06T18:45:49.904Z,21.85
2023-09-06T18:48:18.843Z,21.79
2023-09-06T18:50:49.484Z,21.74
2023-09-06T18:53:16.164Z,21.66
2023-09-06T18:55:45.549Z,21.60
2023-09-06T18:58:12.699Z,21.48
2023-09-06T19:00:42.882Z,21.43
2023-09-06T19:03:13.918Z,21.38
2023-09-06T19:05:42.401Z,21.30
2023-09-06T19:08:15.427Z,21.20
2023-09-06T19:10:43.328Z,21.11
2023-09-06T19:13:11.457Z,21.01
2023-09-06T19:15:39.622Z,20.96
2023-09-06T19:18:07.558Z,20.89
2023-09-06T19:20:37.508Z,20.61
2023-09-06T19:23:07.577Z,20.74
2023-09-06T19:25:38.939Z,20.72
2023-09-06T19:28:08.042Z,20.58
2023-09-06T19:30:34.665Z,20.56
2023-09-06T19:33:01.321Z,20.52
2023-09-06T19:35:27.887Z,20.49
2023-09-06T19:37:54.400Z,20.42
2023-09-06T19:40:20.935Z,20.41
2023-09-06T19:42:47.450Z,20.34
2023-09-06T19:45:14.007Z,20.37
2023-09-06T19:47:40.696Z,20.29
2023-09-06T19:50:08.079Z,20.23
2023-09-06T19:52:34.683Z,20.10
2023-09-06T19:55:02.134Z,20.06
2023-09-06T19:57:30.707Z,19.97
2023-09-06T19:59:58.664Z,19.94
2023-09-06T20:02:27.788Z,19.92
2023-09-06T20:04:54.662Z,19.89
2023-09-06T20:07:21.311Z,19.89
2023-09-06T20:09:48.649Z,19.80
2023-09-06T20:12:15.226Z,19.78
2023-09-06T20:14:41.752Z,19.73
2023-09-06T20:17:08.374Z,19.66
2023-09-06T20:19:34.947Z,19.63
2023-09-06T20:22:01.488Z,19.65
2023-09-06T20:24:28.320Z,19.59
2023-09-06T20:26:54.910Z,19.55
2023-09-06T20:29:27.998Z,19.52
2023-09-06T20:31:58.513Z,19.50
2023-09-06T20:34:26.777Z,19.46
2023-09-06T20:36:53.245Z,19.44
2023-09-06T20:39:19.726Z,19.38
2023-09-06T20:41:46.315Z,19.33
2023-09-06T20:44:12.837Z,19.28
2023-09-06T20:46:39.455Z,19.29
2023-09-06T20:49:06.091Z,19.29
2023-09-06T20:51:32.611Z,19.27
2023-09-06T20:53:59.110Z,19.22
2023-09-06T20:56:25.768Z,19.18
2023-09-06T20:58:52.274Z,19.15
2023-09-06T21:01:22.540Z,19.15
2023-09-06T21:03:49.442Z,19.12
2023-09-06T21:06:16.241Z,18.99
2023-09-06T21:08:43.134Z,19.03
2023-09-06T21:11:09.887Z,19.03
2023-09-06T21:13:36.437Z,19.00
2023-09-06T21:16:03.406Z,18.95
2023-09-06T21:18:31.028Z,18.91
2023-09-06T21:20:58.714Z,18.86
2023-09-06T21:23:25.747Z,18.86
2023-09-06T21:25:52.377Z,18.84
2023-09-06T21:28:19.960Z,18.78
2023-09-06T21:30:48.472Z,18.82
2023-09-06T21:33:16.391Z,18.71
2023-09-06T21:35:44.830Z,18.67
2023-09-06T21:38:12.332Z,18.66
2023-09-06T21:40:39.952Z,18.62
2023-09-06T21:43:16.932Z,18.56
2023-09-06T21:45:44.778Z,18.53
2023-09-06T21:48:11.795Z,18.51
2023-09-06T21:50:40.004Z,18.46
2023-09-06T21:53:07.027Z,18.43
2023-09-06T21:55:34.105Z,18.36
2023-09-06T21:58:09.714Z,18.31
2023-09-06T22:00:37.729Z,18.33
2023-09-06T22:03:04.788Z,18.27
2023-09-06T22:05:31.514Z,18.19
2023-09-06T22:07:58.098Z,18.23
2023-09-06T22:10:24.784Z,18.29
2023-09-06T22:12:51.583Z,18.33
2023-09-06T22:15:18.467Z,18.27
2023-09-06T22:17:44.961Z,18.23
2023-09-06T22:20:11.638Z,18.12
2023-09-06T22:22:38.290Z,18.12
2023-09-06T22:25:08.311Z,18.06
2023-09-06T22:27:35.518Z,18.05
2023-09-06T22:30:03.802Z,18.05
2023-09-06T22:32:30.405Z,18.02
2023-09-06T22:34:59.840Z,18.03
2023-09-06T22:37:26.431Z,18.04
2023-09-06T22:39:53.063Z,18.02
2023-09-06T22:42:19.731Z,17.92
2023-09-06T22:44:46.479Z,17.86
2023-09-06T22:47:13.153Z,17.89
2023-09-06T22:49:39.860Z,17.87
2023-09-06T22:52:07.933Z,17.88
2023-09-06T22:54:39.919Z,17.86
2023-09-06T22:57:07.805Z,17.83
2023-09-06T22:59:35.295Z,17.82
2023-09-06T23:02:02.064Z,17.79
2023-09-06T23:04:33.414Z,17.68
2023-09-06T23:07:01.033Z,17.61
2023-09-06T23:09:27.539Z,17.58
2023-09-06T23:11:57.377Z,17.52
2023-09-06T23:14:27.431Z,17.54
2023-09-06T23:16:54.897Z,17.53
2023-09-06T23:19:26.224Z,17.55
2023-09-06T23:21:56.318Z,17.56
2023-09-06T23:24:23.812Z,17.52
2023-09-06T23:26:58.008Z,17.48
2023-09-06T23:29:26.963Z,17.45
2023-09-06T23:31:59.791Z,17.38
2023-09-06T23:34:30.725Z,17.35
2023-09-06T23:36:59.117Z,17.32
2023-09-06T23:39:29.304Z,17.31
2023-09-06T23:41:57.883Z,17.28
2023-09-06T23:44:25.113Z,17.25
2023-09-06T23:46:52.043Z,17.25
2023-09-06T23:49:21.089Z,17.21
2023-09-06T23:51:48.106Z,17.15
2023-09-06T23:54:15.285Z,17.15
2023-09-06T23:56:42.104Z,17.08
2023-09-06T23:59:08.752Z,17.06
